Time;durP1;ratioP1;P1;durP2;ratioP2;P2;SDS_P1;SDS_P2;PMS_P1;PMS_P2;Temp;Humidity;BMP_temperature;BMP_pressure;BME280_temperature;BME280_humidity;BME280_pressure;Samples;Min_cycle;Max_cycle;Signal;HPM_P1;HPM_P2
2024/04/13 05:02:50;;;;;;;7.63;4.32;;;10.70;91.20;;;;;;4250979;27;20092;-81
2024/04/13 05:04:51;;;;;;;8.52;5.20;;;10.70;91.40;;;;;;4252168;27;20009;-82
2024/04/13 05:06:55;;;;;;;7.97;4.53;;;10.70;91.70;;;;;;4258113;27;20013;-80
2024/04/13 05:08:56;;;;;;;7.85;4.38;;;10.70;91.30;;;;;;4257318;27;20450;-79
2024/04/13 05:11:00;;;;;;;8.27;4.15;;;10.70;91.20;;;;;;4257770;27;20009;-80
2024/04/13 05:13:03;;;;;;;7.38;4.13;;;10.60;90.80;;;;;;4256779;27;20089;-77
2024/04/13 05:15:09;;;;;;;9.73;4.40;;;10.70;90.90;;;;;;4257626;27;20005;-81
2024/04/13 05:17:13;;;;;;;7.60;4.18;;;10.60;90.80;;;;;;4254415;27;20005;-78
2024/04/13 05:19:19;;;;;;;7.88;4.05;;;10.70;90.90;;;;;;4246730;27;20392;-77
2024/04/13 05:21:20;;;;;;;8.35;4.40;;;10.70;90.70;;;;;;4256974;27;20009;-77
2024/04/13 05:23:23;;;;;;;10.52;4.43;;;10.70;91.10;;;;;;4269279;27;20116;-79
2024/04/13 05:25:24;;;;;;;8.15;4.20;;;10.70;91.10;;;;;;4304092;27;20008;-78
2024/04/13 05:27:29;;;;;;;6.82;3.90;;;10.70;90.90;;;;;;4294882;27;20390;-79
2024/04/13 05:29:32;;;;;;;6.82;4.25;;;10.70;90.80;;;;;;4295069;27;20022;-81
2024/04/13 05:31:36;;;;;;;10.73;4.90;;;10.80;91.00;;;;;;4311608;27;20015;-77
2024/04/13 05:33:38;;;;;;;7.53;4.55;;;10.80;91.00;;;;;;4276714;27;20019;-77
2024/04/13 05:35:44;;;;;;;9.63;4.50;;;10.80;91.10;;;;;;4302004;27;20028;-79
2024/04/13 05:37:46;;;;;;;9.25;4.90;;;10.80;91.10;;;;;;4307978;27;20022;-78
2024/04/13 05:39:51;;;;;;;11.45;4.88;;;10.80;91.00;;;;;;4310903;27;20031;-77
2024/04/13 05:41:51;;;;;;;9.80;4.63;;;10.80;91.00;;;;;;4311034;27;20332;-77
2024/04/13 05:43:55;;;;;;;7.75;4.53;;;10.80;91.00;;;;;;4313883;27;20007;-79
2024/04/13 05:45:57;;;;;;;8.32;4.43;;;10.80;91.00;;;;;;4313894;27;20012;-76
2024/04/13 05:48:01;;;;;;;7.40;4.88;;;10.80;91.10;;;;;;4304470;27;20016;-80
2024/04/13 05:50:02;;;;;;;9.50;5.10;;;10.80;90.90;;;;;;4287001;27;20027;-78
2024/04/13 05:52:09;;;;;;;10.15;5.05;;;10.80;91.00;;;;;;4310565;27;20023;-79
2024/04/13 05:54:10;;;;;;;10.25;5.55;;;10.80;91.10;;;;;;4301620;27;20035;-79
2024/04/13 05:56:13;;;;;;;8.20;5.00;;;10.80;91.10;;;;;;4286762;27;20020;-80
2024/04/13 05:58:15;;;;;;;12.05;5.57;;;10.80;91.20;;;;;;4287020;27;20329;-77
2024/04/13 06:00:19;;;;;;;11.02;4.78;;;10.90;91.20;;;;;;4287893;27;20644;-78
2024/04/13 06:02:20;;;;;;;9.30;5.35;;;10.90;91.10;;;;;;4306616;27;20004;-77
2024/04/13 06:04:23;;;;;;;9.73;5.80;;;10.90;91.20;;;;;;4286968;27;20040;-80
2024/04/13 06:06:25;;;;;;;10.05;5.03;;;10.90;91.20;;;;;;4280226;27;20008;-78
2024/04/13 06:08:31;;;;;;;10.00;4.80;;;11.00;91.20;;;;;;4293175;27;20015;-80
2024/04/13 06:10:33;;;;;;;9.55;5.00;;;11.00;91.20;;;;;;4296782;27;20022;-79
2024/04/13 06:12:37;;;;;;;8.35;4.55;;;11.10;91.40;;;;;;4288014;27;20065;-78
2024/04/13 06:14:39;;;;;;;9.32;4.82;;;11.10;91.30;;;;;;4297243;27;19999;-79
2024/04/13 06:16:45;;;;;;;8.20;4.93;;;11.10;91.50;;;;;;4311863;27;20358;-77
2024/04/13 06:18:46;;;;;;;8.88;5.05;;;11.10;91.20;;;;;;4311343;27;20025;-80
2024/04/13 06:20:47;;;;;;;12.10;5.30;;;11.20;91.30;;;;;;4312436;27;20020;-78
2024/04/13 06:22:51;;;;;;;10.95;5.40;;;11.20;91.30;;;;;;4286114;27;20381;-78
2024/04/13 06:24:54;;;;;;;12.93;5.40;;;11.20;91.50;;;;;;4260905;27;20024;-79
2024/04/13 06:26:58;;;;;;;9.75;5.15;;;11.30;91.40;;;;;;4289403;27;20410;-78
2024/04/13 06:28:59;;;;;;;10.05;5.60;;;11.40;91.20;;;;;;4304708;27;20080;-80
2024/04/13 06:31:03;;;;;;;9.32;5.30;;;11.30;91.30;;;;;;4286741;27;20472;-82
2024/04/13 06:33:04;;;;;;;10.05;5.10;;;11.20;91.70;;;;;;4286805;27;20345;-84
2024/04/13 06:35:09;;;;;;;8.82;5.53;;;11.30;91.60;;;;;;4307158;27;20003;-85
2024/04/13 06:37:12;;;;;;;12.82;5.20;;;11.30;91.70;;;;;;4311675;27;20015;-84
2024/04/13 06:39:16;;;;;;;9.25;5.00;;;11.40;91.30;;;;;;4314198;27;20004;-81
2024/04/13 06:41:20;;;;;;;9.25;5.55;;;11.50;91.10;;;;;;4305222;27;20451;-87
2024/04/13 06:43:24;;;;;;;9.77;5.53;;;11.60;91.20;;;;;;4289030;27;20009;-87
2024/04/13 06:45:25;;;;;;;10.18;5.85;;;11.60;91.20;;;;;;4309296;27;20022;-85
2024/04/13 06:47:29;;;;;;;11.13;6.57;;;11.70;91.40;;;;;;4314052;27;20341;-86
2024/04/13 06:49:30;;;;;;;12.27;6.18;;;11.70;91.50;;;;;;4315277;27;20022;-88
2024/04/13 06:51:34;;;;;;;9.85;6.13;;;11.70;91.70;;;;;;4305333;27;20455;-88
2024/04/13 06:53:35;;;;;;;10.35;6.30;;;11.80;91.70;;;;;;4287590;27;20161;-86
2024/04/13 06:55:39;;;;;;;9.73;6.65;;;11.80;91.50;;;;;;4287267;27;20091;-86
2024/04/13 06:57:43;;;;;;;9.70;6.18;;;11.90;91.70;;;;;;4287376;27;20442;-85
2024/04/13 06:59:47;;;;;;;13.98;6.80;;;11.90;91.50;;;;;;4286753;27;20019;-83
2024/04/13 07:01:49;;;;;;;12.05;7.18;;;12.00;91.50;;;;;;4287562;27;20009;-86
2024/04/13 07:03:56;;;;;;;11.32;7.10;;;12.00;91.20;;;;;;4287665;27;20033;-87
2024/04/13 07:05:59;;;;;;;10.63;6.63;;;12.00;91.60;;;;;;4285121;27;20032;-87
2024/04/13 07:08:02;;;;;;;9.60;6.60;;;12.00;92.00;;;;;;4312011;27;20079;-82
2024/04/13 07:10:05;;;;;;;9.50;6.25;;;11.90;92.30;;;;;;4306494;27;20027;-82
2024/04/13 07:12:10;;;;;;;13.10;7.07;;;12.00;92.40;;;;;;4287310;27;20004;-84
2024/04/13 07:14:13;;;;;;;11.93;6.60;;;12.10;92.30;;;;;;4289181;27;20004;-86
2024/04/13 07:16:17;;;;;;;12.85;7.00;;;12.20;92.30;;;;;;4298409;27;20110;-78
2024/04/13 07:18:18;;;;;;;11.35;6.55;;;12.30;92.30;;;;;;4310503;27;20000;-77
2024/04/13 07:20:21;;;;;;;11.23;6.47;;;12.30;92.50;;;;;;4312603;27;20032;-78
2024/04/13 07:22:22;;;;;;;13.23;6.70;;;12.40;92.00;;;;;;4312911;27;20018;-77
2024/04/13 07:24:26;;;;;;;11.02;6.57;;;12.40;91.80;;;;;;4312080;27;20337;-77
2024/04/13 07:26:28;;;;;;;15.00;6.40;;;12.40;92.00;;;;;;4312910;27;20008;-79
2024/04/13 07:28:34;;;;;;;12.23;6.60;;;12.40;91.90;;;;;;4312418;27;20012;-77
2024/04/13 07:30:38;;;;;;;11.98;7.05;;;12.50;91.50;;;;;;4314051;27;20328;-76
2024/04/13 07:32:41;;;;;;;12.18;6.78;;;12.60;91.40;;;;;;4312116;27;20008;-79
2024/04/13 07:34:42;;;;;;;13.60;6.78;;;12.60;91.30;;;;;;4311788;27;20364;-80
2024/04/13 07:36:46;;;;;;;13.50;6.68;;;12.70;91.40;;;;;;4313016;27;20012;-78
2024/04/13 07:38:47;;;;;;;10.98;6.45;;;12.70;91.10;;;;;;4313441;27;20000;-79
2024/04/13 07:40:50;;;;;;;13.68;6.55;;;12.80;91.30;;;;;;4296634;27;20023;-86
2024/04/13 07:42:51;;;;;;;12.90;6.25;;;12.80;91.20;;;;;;4268957;27;20447;-80
2024/04/13 07:44:55;;;;;;;10.70;6.70;;;12.90;91.00;;;;;;4282741;27;20020;-82
2024/04/13 07:46:59;;;;;;;12.98;6.85;;;13.00;91.10;;;;;;4284792;27;20461;-82
2024/04/13 07:49:03;;;;;;;10.63;6.78;;;13.00;91.10;;;;;;4305718;27;20004;-79
2024/04/13 07:51:04;;;;;;;12.27;7.40;;;13.10;90.80;;;;;;4297609;27;20105;-80
2024/04/13 07:53:08;;;;;;;11.02;7.07;;;13.10;91.00;;;;;;4285442;27;20004;-80
2024/04/13 07:55:09;;;;;;;17.00;7.30;;;13.20;91.00;;;;;;4285624;27;20330;-78
2024/04/13 07:57:12;;;;;;;11.98;7.40;;;13.30;90.90;;;;;;4307694;27;20012;-78
2024/04/13 07:59:13;;;;;;;11.40;7.38;;;13.30;91.00;;;;;;4312586;27;20000;-79
2024/04/13 08:01:16;;;;;;;11.90;7.70;;;13.40;91.00;;;;;;4312323;27;20508;-79
2024/04/13 08:03:21;;;;;;;10.15;6.28;;;13.40;90.90;;;;;;4312503;27;20433;-80
2024/04/13 08:05:25;;;;;;;11.02;6.90;;;13.50;90.80;;;;;;4312416;27;20077;-79
2024/04/13 08:07:26;;;;;;;9.90;6.80;;;13.50;91.00;;;;;;4305007;27;20023;-77
2024/04/13 08:09:29;;;;;;;10.80;6.53;;;13.60;90.90;;;;;;4269705;27;20087;-80
2024/04/13 08:11:30;;;;;;;12.77;6.53;;;13.60;90.80;;;;;;4282584;27;20004;-76
2024/04/13 08:13:33;;;;;;;11.38;6.30;;;13.70;90.70;;;;;;4311857;27;20036;-79
2024/04/13 08:15:38;;;;;;;10.35;6.50;;;13.70;90.40;;;;;;4312043;27;20010;-78
2024/04/13 08:17:41;;;;;;;12.18;6.20;;;13.80;90.40;;;;;;4310365;27;20087;-78
2024/04/13 08:19:45;;;;;;;12.63;6.40;;;13.90;90.40;;;;;;4287394;27;20008;-79
2024/04/13 08:21:48;;;;;;;10.10;5.80;;;13.90;90.20;;;;;;4284832;27;20084;-77
2024/04/13 08:23:49;;;;;;;12.18;6.45;;;13.90;89.80;;;;;;4284804;27;20008;-80
2024/04/13 08:25:53;;;;;;;10.85;6.20;;;14.00;89.90;;;;;;4284596;27;20390;-78
2024/04/13 08:27:55;;;;;;;11.90;6.07;;;14.10;89.70;;;;;;4284665;27;20024;-78
2024/04/13 08:29:58;;;;;;;10.18;5.88;;;14.10;89.80;;;;;;4284985;27;20001;-80
2024/04/13 08:31:59;;;;;;;11.40;6.25;;;14.20;89.20;;;;;;4307288;27;20008;-77
2024/04/13 08:34:03;;;;;;;8.88;5.95;;;14.30;89.10;;;;;;4312070;27;20040;-77
2024/04/13 08:36:08;;;;;;;12.23;6.05;;;14.30;89.00;;;;;;4311456;27;20448;-77
2024/04/13 08:38:12;;;;;;;10.57;5.53;;;14.50;88.40;;;;;;4288257;27;20013;-78
2024/04/13 08:40:13;;;;;;;10.85;5.47;;;14.50;87.60;;;;;;4257925;27;20001;-75
2024/04/13 08:42:19;;;;;;;9.23;5.82;;;14.60;87.50;;;;;;4301701;27;20087;-76
2024/04/13 08:44:24;;;;;;;10.90;5.30;;;14.70;87.50;;;;;;4289211;27;20077;-77
2024/04/13 08:46:26;;;;;;;11.10;5.73;;;14.80;87.20;;;;;;4284572;27;20319;-78
2024/04/13 08:48:29;;;;;;;12.48;6.32;;;14.90;86.90;;;;;;4284001;27;20232;-77
2024/04/13 08:50:33;;;;;;;9.23;5.45;;;14.90;86.80;;;;;;4303921;27;20030;-77
2024/04/13 08:52:40;;;;;;;12.13;5.45;;;15.00;86.50;;;;;;4309557;27;20031;-79
2024/04/13 08:54:40;;;;;;;11.13;5.38;;;15.10;86.10;;;;;;4309044;27;20022;-77
2024/04/13 08:56:45;;;;;;;9.40;5.68;;;15.10;85.60;;;;;;4311705;27;20012;-76
2024/04/13 08:58:50;;;;;;;10.00;5.40;;;15.20;85.60;;;;;;4314829;27;20316;-76
2024/04/13 09:00:55;;;;;;;6.50;4.82;;;15.30;84.00;;;;;;4300442;27;20008;-76
2024/04/13 09:02:57;;;;;;;14.25;5.57;;;15.40;84.00;;;;;;4307453;27;20024;-77
2024/04/13 09:05:02;;;;;;;8.75;5.00;;;15.50;83.80;;;;;;4287271;27;20004;-79
2024/04/13 09:07:03;;;;;;;8.95;4.68;;;15.50;83.30;;;;;;4308181;27;20088;-80
2024/04/13 09:09:11;;;;;;;7.82;4.38;;;15.60;83.00;;;;;;4301342;27;20357;-79
2024/04/13 09:11:12;;;;;;;11.68;4.90;;;15.70;82.50;;;;;;4285212;27;20019;-78
2024/04/13 09:13:15;;;;;;;8.15;4.50;;;15.80;82.40;;;;;;4286952;27;20013;-79
2024/04/13 09:15:16;;;;;;;8.13;4.20;;;15.80;81.60;;;;;;4308542;27;20411;-78
2024/04/13 09:17:20;;;;;;;10.02;4.82;;;15.90;81.10;;;;;;4308111;27;20027;-78
2024/04/13 09:19:21;;;;;;;11.20;4.60;;;15.90;80.70;;;;;;4311494;27;20004;-79
2024/04/13 09:21:26;;;;;;;7.10;4.10;;;16.00;81.40;;;;;;4295128;27;20022;-78
2024/04/13 09:23:29;;;;;;;7.97;4.25;;;16.20;81.70;;;;;;4286796;27;20004;-81
2024/04/13 09:25:35;;;;;;;10.55;4.70;;;16.20;81.20;;;;;;4274400;27;20504;-79
2024/04/13 09:27:36;;;;;;;11.75;4.60;;;16.20;82.00;;;;;;4260125;27;20001;-78
2024/04/13 09:29:39;;;;;;;8.18;4.28;;;16.30;81.70;;;;;;4274080;27;20018;-79
2024/04/13 09:31:40;;;;;;;8.20;4.03;;;16.30;81.50;;;;;;4314003;27;20004;-77
2024/04/13 09:33:50;;;;;;;11.90;4.47;;;16.40;81.10;;;;;;4291550;27;20000;-79
2024/04/13 09:35:57;;;;;;;9.93;4.30;;;16.40;81.10;;;;;;4286528;27;20008;-77
2024/04/13 09:38:03;;;;;;;9.85;3.80;;;16.50;80.80;;;;;;4270276;27;20461;-77
2024/04/13 09:40:05;;;;;;;8.50;3.78;;;16.60;79.70;;;;;;4312465;27;20352;-78
2024/04/13 09:42:13;;;;;;;10.13;3.70;;;16.70;79.20;;;;;;4313748;27;20012;-79
2024/04/13 09:44:25;;;;;;;7.70;3.80;;;16.80;79.50;;;;;;4313916;27;20004;-76
2024/04/13 09:46:28;;;;;;;6.75;3.13;;;16.90;79.00;;;;;;4268246;27;20465;-78
2024/04/13 09:48:29;;;;;;;8.73;3.10;;;17.00;78.90;;;;;;4259601;27;20006;-79
2024/04/13 09:50:33;;;;;;;6.88;3.10;;;17.00;77.90;;;;;;4300260;27;20020;-79
2024/04/13 09:52:34;;;;;;;7.78;3.70;;;17.20;76.70;;;;;;4298742;27;20019;-79
2024/04/13 09:54:38;;;;;;;5.93;2.80;;;17.30;76.80;;;;;;4313766;27;20004;-78
2024/04/13 09:56:39;;;;;;;6.85;3.08;;;17.40;76.10;;;;;;4305379;27;20465;-77
2024/04/13 09:58:46;;;;;;;9.30;3.17;;;17.60;74.80;;;;;;4313680;27;20011;-79
2024/04/13 10:00:46;;;;;;;7.47;3.08;;;17.60;74.00;;;;;;4289738;27;21775;-81
2024/04/13 10:02:50;;;;;;;6.18;2.85;;;17.70;73.50;;;;;;4259731;27;20042;-82
2024/04/13 10:04:51;;;;;;;7.63;2.95;;;17.80;74.20;;;;;;4259604;27;20012;-80
2024/04/13 10:06:59;;;;;;;8.63;2.67;;;17.90;73.60;;;;;;4259249;27;20029;-80
2024/04/13 10:09:02;;;;;;;7.80;2.80;;;18.00;70.70;;;;;;4259133;27;20005;-80
2024/04/13 10:11:04;;;;;;;7.68;2.63;;;18.00;69.50;;;;;;4259768;27;20081;-81
2024/04/13 10:13:11;;;;;;;6.13;2.67;;;18.10;70.30;;;;;;4259643;27;20005;-81
2024/04/13 10:15:15;;;;;;;6.57;2.50;;;18.10;68.80;;;;;;4259720;27;20016;-81
2024/04/13 10:17:19;;;;;;;7.00;2.65;;;18.20;67.80;;;;;;4259461;27;20010;-81
2024/04/13 10:19:22;;;;;;;7.22;2.55;;;18.30;68.50;;;;;;4260226;27;20024;-80
2024/04/13 10:21:25;;;;;;;6.22;2.35;;;18.40;67.00;;;;;;4259780;27;20024;-82
2024/04/13 10:23:26;;;;;;;6.03;2.42;;;18.40;67.20;;;;;;4259721;27;20001;-80
2024/04/13 10:25:30;;;;;;;4.88;2.60;;;18.50;67.20;;;;;;4259817;27;20347;-83
2024/04/13 10:27:33;;;;;;;4.97;2.58;;;18.60;65.90;;;;;;4259545;27;20089;-81
2024/04/13 10:29:40;;;;;;;5.78;2.33;;;18.60;65.20;;;;;;4259462;27;20005;-82
2024/04/13 10:31:44;;;;;;;8.02;2.65;;;18.70;64.50;;;;;;4259405;27;20025;-81
2024/04/13 10:33:56;;;;;;;6.55;2.50;;;18.80;64.70;;;;;;4259667;27;20009;-81
2024/04/13 10:35:59;;;;;;;8.13;2.60;;;18.80;65.00;;;;;;4259615;27;20033;-81
2024/04/13 10:38:02;;;;;;;6.18;2.70;;;18.90;64.40;;;;;;4259709;27;20005;-79
2024/04/13 10:40:06;;;;;;;4.22;2.20;;;19.00;65.30;;;;;;4259428;27;20021;-81
2024/04/13 10:42:14;;;;;;;8.30;2.40;;;19.10;64.80;;;;;;4259519;27;20016;-80
2024/04/13 10:44:24;;;;;;;5.40;2.17;;;19.20;64.30;;;;;;4259472;27;20001;-79
2024/04/13 10:46:28;;;;;;;7.05;2.83;;;19.20;62.00;;;;;;4259621;27;20005;-80
2024/04/13 10:48:32;;;;;;;6.88;2.28;;;19.30;61.70;;;;;;4259328;27;20037;-80
2024/04/13 10:50:36;;;;;;;5.43;2.13;;;19.30;60.80;;;;;;4274691;27;20004;-80
2024/04/13 10:52:37;;;;;;;4.85;2.00;;;19.40;60.70;;;;;;4284796;27;20019;-80
2024/04/13 10:54:41;;;;;;;7.75;2.22;;;19.50;61.50;;;;;;4285917;27;20041;-82
2024/04/13 10:56:43;;;;;;;5.20;2.20;;;19.60;60.80;;;;;;4286126;27;20005;-80
2024/04/13 10:58:47;;;;;;;6.53;2.08;;;19.60;61.20;;;;;;4284658;27;20008;-79
2024/04/13 11:00:49;;;;;;;6.57;2.17;;;19.70;59.20;;;;;;4286222;27;20473;-80
2024/04/13 11:02:52;;;;;;;5.55;2.10;;;19.80;58.60;;;;;;4286101;27;20014;-79
2024/04/13 11:04:56;;;;;;;6.35;2.00;;;19.80;58.40;;;;;;4286099;27;20020;-78
2024/04/13 11:07:02;;;;;;;6.72;2.00;;;19.90;58.00;;;;;;4286157;27;20036;-78
2024/04/13 11:09:04;;;;;;;;;;;20.00;57.50;;;;;;4286621;27;20004;-80
2024/04/13 11:11:07;;;;;;;5.90;2.25;;;20.10;58.10;;;;;;4285970;27;19936;-81
2024/04/13 11:13:08;;;;;;;6.85;2.20;;;20.10;56.80;;;;;;4285786;27;20001;-80
2024/04/13 11:15:12;;;;;;;7.10;2.20;;;20.20;56.60;;;;;;4285555;27;20023;-78
2024/04/13 11:17:13;;;;;;;5.30;2.00;;;20.20;56.70;;;;;;4286023;27;20007;-81
2024/04/13 11:19:16;;;;;;;5.05;1.90;;;20.30;57.20;;;;;;4285681;27;20008;-80
2024/04/13 11:21:22;;;;;;;5.20;2.05;;;20.40;56.90;;;;;;4285997;27;20366;-80
2024/04/13 11:23:25;;;;;;;6.28;2.38;;;20.50;56.10;;;;;;4285722;27;20079;-81
2024/04/13 11:25:27;;;;;;;6.22;1.95;;;20.50;56.10;;;;;;4285994;27;20009;-80
2024/04/13 11:27:28;;;;;;;7.55;2.33;;;20.60;56.10;;;;;;4285819;27;20016;-80
2024/04/13 11:29:32;;;;;;;6.35;2.13;;;20.70;56.90;;;;;;4285827;27;20454;-79
2024/04/13 11:31:34;;;;;;;6.25;1.92;;;20.70;56.30;;;;;;4285664;27;20005;-79
2024/04/13 11:33:38;;;;;;;5.80;2.15;;;20.80;55.90;;;;;;4285643;27;20017;-80
2024/04/13 11:35:39;;;;;;;4.80;1.95;;;20.80;55.20;;;;;;4285485;27;20015;-80
2024/04/13 11:37:56;;;;;;;6.28;2.13;;;20.90;54.70;;;;;;4285657;27;20037;-81
2024/04/13 11:39:57;;;;;;;6.35;2.13;;;21.00;56.30;;;;;;4285679;27;20015;-79
2024/04/13 11:42:06;;;;;;;6.00;2.25;;;21.10;55.40;;;;;;4284761;27;20009;-81
2024/04/13 11:44:07;;;;;;;4.43;1.88;;;21.20;55.50;;;;;;4270479;27;20018;-81
2024/04/13 11:46:10;;;;;;;5.93;2.10;;;21.30;56.10;;;;;;4285673;27;20022;-80
2024/04/13 11:48:12;;;;;;;4.80;1.88;;;21.20;53.70;;;;;;4266873;27;20347;-78
2024/04/13 11:50:16;;;;;;;10.25;2.50;;;21.40;56.10;;;;;;4259277;27;20073;-83
2024/04/13 11:52:18;;;;;;;6.80;2.85;;;21.40;56.90;;;;;;4284820;27;20019;-78
2024/04/13 11:54:27;;;;;;;7.35;2.13;;;21.50;56.50;;;;;;4304747;27;20454;-78
2024/04/13 11:56:30;;;;;;;4.72;1.90;;;21.60;55.50;;;;;;4310069;27;20457;-78
2024/04/13 11:58:33;;;;;;;6.07;1.70;;;21.70;53.10;;;;;;4312262;27;20004;-79
2024/04/13 12:00:34;;;;;;;5.90;2.10;;;21.70;53.50;;;;;;4294130;27;20012;-77
2024/04/13 12:02:37;;;;;;;6.28;2.00;;;21.80;53.00;;;;;;4301934;27;20041;-78
2024/04/13 12:04:40;;;;;;;5.68;2.10;;;21.90;52.50;;;;;;4311197;27;20004;-79
2024/04/13 12:06:43;;;;;;;7.20;1.95;;;22.00;53.10;;;;;;4285900;27;20076;-78
2024/04/13 12:08:44;;;;;;;5.68;1.67;;;22.10;52.70;;;;;;4287753;27;20008;-76
2024/04/13 12:10:50;;;;;;;5.35;1.90;;;22.20;52.00;;;;;;4285608;27;20008;-79
2024/04/13 12:12:51;;;;;;;14.13;2.75;;;22.30;52.20;;;;;;4285255;27;20005;-79
2024/04/13 12:14:55;;;;;;;7.03;2.08;;;22.40;51.40;;;;;;4286373;27;20023;-78
2024/04/13 12:16:56;;;;;;;4.10;1.73;;;22.50;52.10;;;;;;4311976;27;20008;-77
2024/04/13 12:18:59;;;;;;;5.47;1.70;;;22.60;51.30;;;;;;4312311;27;20015;-77
2024/04/13 12:21:00;;;;;;;6.35;1.77;;;22.70;51.90;;;;;;4312235;27;20050;-78
2024/04/13 12:23:01;;;;;;;4.75;1.60;;;22.70;50.50;;;;;;4290649;27;20471;-79
2024/04/13 12:25:05;;;;;;;5.82;2.00;;;22.90;49.40;;;;;;4266147;27;20020;-77
2024/04/13 12:27:09;;;;;;;5.00;2.17;;;23.00;50.10;;;;;;4291676;27;20008;-77
2024/04/13 12:29:13;;;;;;;5.35;1.90;;;23.10;49.40;;;;;;4283449;27;20004;-78
2024/04/13 12:31:14;;;;;;;4.68;2.08;;;23.20;48.30;;;;;;4311116;27;20004;-78
2024/04/13 12:33:18;;;;;;;8.25;1.90;;;23.40;49.20;;;;;;4307752;27;20022;-78
2024/04/13 12:35:20;;;;;;;6.07;1.90;;;23.50;48.60;;;;;;4291679;27;20008;-78
2024/04/13 12:37:24;;;;;;;4.07;1.65;;;23.60;48.70;;;;;;4285349;27;20036;-78
2024/04/13 12:39:25;;;;;;;4.93;1.63;;;23.80;48.20;;;;;;4257863;27;20431;-79
2024/04/13 12:41:28;;;;;;;4.18;1.63;;;23.90;49.30;;;;;;4259505;27;20009;-76
2024/04/13 12:43:32;;;;;;;4.88;1.67;;;24.00;48.50;;;;;;4312141;27;20016;-79
2024/04/13 12:45:36;;;;;;;6.32;1.70;;;24.10;47.50;;;;;;4307827;27;20015;-77
2024/04/13 12:47:38;;;;;;;4.70;1.67;;;24.10;46.80;;;;;;4312077;27;20003;-78
2024/04/13 12:49:42;;;;;;;3.90;1.60;;;24.20;46.40;;;;;;4312154;27;20019;-79
2024/04/13 12:51:43;;;;;;;6.03;1.90;;;24.40;46.20;;;;;;4303172;27;20008;-77
2024/04/13 12:53:46;;;;;;;4.97;1.70;;;24.50;45.60;;;;;;4296697;27;20055;-77
2024/04/13 12:55:49;;;;;;;3.95;1.60;;;24.60;46.40;;;;;;4298459;27;20023;-77
2024/04/13 12:57:53;;;;;;;4.35;1.88;;;24.80;46.40;;;;;;4285036;27;20080;-77
2024/04/13 12:59:56;;;;;;;5.13;1.80;;;24.90;46.70;;;;;;4285027;27;20315;-77
2024/04/13 13:02:00;;;;;;;4.43;1.98;;;25.10;46.10;;;;;;4284309;27;20019;-78
2024/04/13 13:04:01;;;;;;;4.97;2.00;;;25.10;47.30;;;;;;4284547;27;20000;-78
2024/04/13 13:06:05;;;;;;;4.78;1.77;;;25.20;46.20;;;;;;4299451;27;20468;-78
2024/04/13 13:08:06;;;;;;;4.28;1.65;;;25.20;45.50;;;;;;4311892;27;20000;-78
2024/04/13 13:10:10;;;;;;;4.82;1.92;;;25.20;44.60;;;;;;4311934;27;20007;-76
2024/04/13 13:12:11;;;;;;;4.72;1.65;;;25.20;44.70;;;;;;4312030;27;20004;-77
2024/04/13 13:14:15;;;;;;;5.18;1.63;;;25.40;45.50;;;;;;4311504;27;20018;-78
2024/04/13 13:16:18;;;;;;;5.95;1.98;;;25.60;45.40;;;;;;4307990;27;20008;-77
2024/04/13 13:18:19;;;;;;;6.05;1.90;;;25.60;43.40;;;;;;4312218;27;20019;-78
2024/04/13 13:20:23;;;;;;;5.72;2.00;;;25.60;43.60;;;;;;4295159;27;20016;-77
2024/04/13 13:22:24;;;;;;;5.82;1.70;;;25.80;45.60;;;;;;4311651;27;20013;-77
2024/04/13 13:24:27;;;;;;;4.85;1.70;;;26.00;43.80;;;;;;4292987;27;20354;-77
2024/04/13 13:26:28;;;;;;;5.13;1.75;;;26.10;42.30;;;;;;4309713;27;20008;-78
2024/04/13 13:28:32;;;;;;;7.32;2.20;;;26.20;42.30;;;;;;4303559;27;20035;-77
2024/04/13 13:30:36;;;;;;;7.07;1.83;;;26.40;46.20;;;;;;4284575;27;20342;-77
2024/04/13 13:32:44;;;;;;;3.55;1.70;;;26.50;41.20;;;;;;4290310;27;20008;-77
2024/04/13 13:34:45;;;;;;;5.60;1.70;;;26.70;41.30;;;;;;4289827;27;20009;-76
2024/04/13 13:36:49;;;;;;;3.67;1.70;;;26.30;41.20;;;;;;4284254;27;20012;-76
2024/04/13 13:38:50;;;;;;;5.53;1.77;;;26.20;40.60;;;;;;4284066;27;20004;-77
2024/04/13 13:40:54;;;;;;;4.88;1.90;;;26.20;42.60;;;;;;4284261;27;20027;-79
2024/04/13 13:42:55;;;;;;;3.47;1.70;;;26.10;42.30;;;;;;4284168;27;20005;-79
2024/04/13 13:44:58;;;;;;;4.18;1.60;;;26.00;41.80;;;;;;4281323;27;20031;-77
2024/04/13 13:46:59;;;;;;;4.40;1.60;;;26.00;41.00;;;;;;4301519;27;20004;-77
2024/04/13 13:49:05;;;;;;;4.22;1.60;;;25.80;40.90;;;;;;4301737;27;20019;-78
2024/04/13 13:51:07;;;;;;;5.03;1.70;;;25.80;41.30;;;;;;4311053;27;20019;-78
2024/04/13 13:53:11;;;;;;;3.45;1.55;;;25.70;40.60;;;;;;4298432;27;20023;-77
2024/04/13 13:55:12;;;;;;;6.38;1.70;;;25.70;41.20;;;;;;4287057;27;20005;-77
2024/04/13 13:57:16;;;;;;;5.95;1.70;;;25.80;41.50;;;;;;4311185;27;20004;-76
2024/04/13 13:59:17;;;;;;;6.43;1.60;;;25.80;40.70;;;;;;4310928;27;20479;-77
2024/04/13 14:01:20;;;;;;;5.25;1.77;;;25.80;40.00;;;;;;4311033;27;20014;-77
2024/04/13 14:03:21;;;;;;;3.08;1.50;;;25.80;40.40;;;;;;4308886;27;20005;-77
2024/04/13 14:05:29;;;;;;;4.78;1.70;;;25.90;40.90;;;;;;4308304;27;20019;-77
2024/04/13 14:07:30;;;;;;;4.15;2.00;;;25.90;39.30;;;;;;4311014;27;20449;-77
2024/04/13 14:09:35;;;;;;;4.30;1.60;;;25.90;40.00;;;;;;4309620;27;20403;-77
2024/04/13 14:11:36;;;;;;;5.55;2.50;;;25.90;39.30;;;;;;4310814;27;20004;-77
2024/04/13 14:13:39;;;;;;;5.45;2.50;;;25.90;40.60;;;;;;4300599;27;20012;-76
2024/04/13 14:15:40;;;;;;;4.03;1.52;;;26.10;40.60;;;;;;4297664;27;20023;-76
2024/04/13 14:17:44;;;;;;;5.00;1.77;;;26.20;40.50;;;;;;4311106;27;20007;-76
2024/04/13 14:19:45;;;;;;;5.18;1.90;;;26.20;39.70;;;;;;4311296;27;20056;-79
2024/04/13 14:21:51;;;;;;;6.28;1.80;;;26.30;39.30;;;;;;4282175;27;20029;-78
2024/04/13 14:23:52;;;;;;;3.75;1.55;;;26.40;38.90;;;;;;4284172;27;20036;-79
2024/04/13 14:25:56;;;;;;;5.22;1.70;;;26.50;38.60;;;;;;4299592;27;20019;-78
2024/04/13 14:27:57;;;;;;;5.45;1.63;;;26.50;39.10;;;;;;4309930;27;20018;-76
2024/04/13 14:30:01;;;;;;;5.85;1.70;;;26.50;39.80;;;;;;4310955;27;20434;-77
2024/04/13 14:32:02;;;;;;;3.92;1.55;;;26.50;38.40;;;;;;4309129;27;20008;-77
2024/04/13 14:34:05;;;;;;;4.28;1.60;;;26.50;37.50;;;;;;4309956;27;20003;-76
2024/04/13 14:36:07;;;;;;;4.38;1.70;;;26.60;37.70;;;;;;4298438;27;20023;-80
2024/04/13 14:38:13;;;;;;;4.15;1.50;;;26.60;37.40;;;;;;4283890;27;20028;-77
2024/04/13 14:40:14;;;;;;;7.25;1.55;;;26.60;36.60;;;;;;4283395;27;20023;-76
2024/04/13 14:42:18;;;;;;;4.38;1.85;;;26.70;37.90;;;;;;4289198;27;20004;-76
2024/04/13 14:44:19;;;;;;;4.32;1.73;;;26.80;37.80;;;;;;4308218;27;20003;-78
2024/04/13 14:46:23;;;;;;;6.28;2.42;;;26.70;37.60;;;;;;4295449;27;20004;-77
2024/04/13 14:48:24;;;;;;;4.65;2.20;;;26.90;38.20;;;;;;4282775;27;20024;-76
2024/04/13 14:50:27;;;;;;;4.55;1.52;;;26.90;37.50;;;;;;4283130;27;20016;-77
2024/04/13 14:52:28;;;;;;;4.60;1.88;;;27.00;37.20;;;;;;4283630;27;20008;-77
2024/04/13 14:54:35;;;;;;;6.20;1.83;;;27.00;38.90;;;;;;4281166;27;20023;-77
2024/04/13 14:56:36;;;;;;;4.25;1.67;;;27.00;37.10;;;;;;4289544;27;20019;-78
2024/04/13 14:58:40;;;;;;;4.72;1.70;;;27.00;35.60;;;;;;4301022;27;20346;-81
2024/04/13 15:00:40;;;;;;;5.20;2.22;;;27.10;37.20;;;;;;4308526;27;20023;-83
2024/04/13 15:02:44;;;;;;;6.85;3.40;;;27.00;38.00;;;;;;4298678;27;20004;-80
2024/04/13 15:04:45;;;;;;;7.65;3.92;;;26.80;37.40;;;;;;4307137;27;20015;-79
2024/04/13 15:06:49;;;;;;;5.28;1.80;;;26.80;36.10;;;;;;4288174;27;20450;-81
2024/04/13 15:08:50;;;;;;;4.03;1.73;;;26.90;34.40;;;;;;4283705;27;20011;-79
2024/04/13 15:10:59;;;;;;;4.50;1.60;;;27.00;34.20;;;;;;4283339;27;20004;-78
2024/04/13 15:13:00;;;;;;;3.70;1.40;;;27.10;33.90;;;;;;4283576;27;20004;-79
2024/04/13 15:15:04;;;;;;;3.47;1.52;;;27.20;34.30;;;;;;4285693;27;20051;-77
2024/04/13 15:17:05;;;;;;;4.47;1.52;;;27.20;34.50;;;;;;4310524;27;20344;-79
2024/04/13 15:19:09;;;;;;;3.53;1.20;;;27.20;35.50;;;;;;4310244;27;20008;-78
2024/04/13 15:21:11;;;;;;;3.35;1.23;;;27.10;33.30;;;;;;4301214;27;20009;-78
2024/04/13 15:23:14;;;;;;;3.08;1.20;;;27.20;33.40;;;;;;4283353;27;20045;-78
2024/04/13 15:25:16;;;;;;;5.57;1.48;;;27.30;33.20;;;;;;4286261;27;20004;-80
2024/04/13 15:27:22;;;;;;;3.28;1.33;;;27.30;33.10;;;;;;4310189;27;20014;-77
2024/04/13 15:29:23;;;;;;;5.53;1.17;;;27.10;33.50;;;;;;4308756;27;20039;-78
2024/04/13 15:31:28;;;;;;;3.63;1.25;;;27.10;33.90;;;;;;4310340;27;20003;-79
2024/04/13 15:33:29;;;;;;;4.88;1.42;;;27.20;34.10;;;;;;4281870;27;20448;-77
2024/04/13 15:35:33;;;;;;;3.78;1.30;;;27.40;34.80;;;;;;4274847;27;20079;-78
2024/04/13 15:37:34;;;;;;;3.53;1.30;;;27.30;31.90;;;;;;4310417;27;20018;-78
2024/04/13 15:39:37;;;;;;;2.97;1.33;;;27.50;33.00;;;;;;4302305;27;20327;-76
2024/04/13 15:41:38;;;;;;;4.32;1.23;;;27.50;33.50;;;;;;4310031;27;20090;-77